Time;durP1;ratioP1;P1;durP2;ratioP2;P2;SDS_P1;SDS_P2;PMS_P1;PMS_P2;Temp;Humidity;BMP_temperature;BMP_pressure;BME280_temperature;BME280_humidity;BME280_pressure;Samples;Min_cycle;Max_cycle;Signal;HPM_P1;HPM_P2
2023/07/31 00:00:23;;;;;;;0.30;0.30;;;24.40;62.20;;;24.84;46.43;94890.63;5078512;28;20639;-37
2023/07/31 00:02:52;;;;;;;0.20;0.20;;;24.40;62.20;;;24.83;46.66;94888.19;5080055;28;20197;-36
2023/07/31 00:05:19;;;;;;;0.30;0.30;;;24.40;62.20;;;24.84;46.39;94892.47;5079924;28;20213;-37
2023/07/31 00:07:46;;;;;;;0.40;0.40;;;24.40;62.20;;;24.83;46.57;94896.25;5077773;28;20643;-37
2023/07/31 00:10:13;;;;;;;0.30;0.30;;;24.30;62.20;;;24.81;46.46;94893.84;5077148;28;20199;-36
2023/07/31 00:12:43;;;;;;;0.30;0.30;;;24.30;62.20;;;24.80;46.56;94897.59;5077543;28;20251;-36
2023/07/31 00:15:10;;;;;;;0.50;0.50;;;24.30;62.30;;;24.78;46.85;94892.53;5060393;28;20185;-36
2023/07/31 00:17:37;;;;;;;0.30;0.30;;;24.30;62.30;;;24.80;46.82;94900.28;5077274;28;20623;-36
2023/07/31 00:20:05;;;;;;;0.40;0.40;;;24.30;62.40;;;24.81;46.93;94904.56;5076967;28;20196;-36
2023/07/31 00:22:32;;;;;;;0.40;0.40;;;24.30;62.60;;;24.81;46.96;94895.75;5076294;28;20270;-36
2023/07/31 00:24:59;;;;;;;0.40;0.40;;;24.30;62.50;;;24.82;46.78;94903.50;5077670;28;20188;-36
2023/07/31 00:27:27;;;;;;;0.30;0.30;;;24.30;62.60;;;24.82;46.72;94900.81;5076643;28;20491;-36
2023/07/31 00:29:54;;;;;;;0.47;0.47;;;24.30;62.70;;;24.83;47.11;94891.69;5076213;28;20586;-36
2023/07/31 00:32:21;;;;;;;0.32;0.32;;;24.30;62.70;;;24.84;47.05;94895.16;5075915;28;20204;-36
2023/07/31 00:34:48;;;;;;;0.30;0.30;;;24.40;62.80;;;24.85;47.22;94899.44;5075779;28;20215;-36
2023/07/31 00:37:15;;;;;;;0.30;0.30;;;24.40;62.90;;;24.84;47.41;94897.84;5075858;28;20292;-36
2023/07/31 00:39:42;;;;;;;0.40;0.40;;;24.40;62.90;;;24.84;47.54;94901.34;5076021;28;20288;-36
2023/07/31 00:42:09;;;;;;;0.30;0.30;;;24.40;62.80;;;24.84;47.08;94898.66;5075748;28;20205;-36
2023/07/31 00:44:37;;;;;;;0.30;0.30;;;24.40;62.90;;;24.84;47.44;94890.63;5075634;28;20290;-36
2023/07/31 00:47:05;;;;;;;0.50;0.50;;;24.40;62.80;;;24.84;47.49;94893.28;5076620;28;20209;-36
2023/07/31 00:49:32;;;;;;;0.30;0.30;;;24.40;62.90;;;24.85;47.39;94897.59;5059874;28;20277;-36
2023/07/31 00:52:00;;;;;;;0.30;0.30;;;24.40;62.90;;;24.86;47.20;94898.38;5076741;28;20196;-36
2023/07/31 00:54:28;;;;;;;0.30;0.30;;;24.40;62.80;;;24.84;47.11;94895.97;5059647;28;20205;-36
2023/07/31 00:56:57;;;;;;;0.30;0.30;;;24.40;62.60;;;24.81;47.01;94896.53;5076662;28;20289;-36
2023/07/31 00:59:24;;;;;;;0.40;0.40;;;24.40;62.50;;;24.78;47.02;94892.53;5076725;28;20526;-36
2023/07/31 01:01:51;;;;;;;0.30;0.30;;;24.40;62.60;;;24.77;46.97;94895.50;5076447;28;20208;-36
2023/07/31 01:04:19;;;;;;;0.38;0.38;;;24.40;62.70;;;24.76;47.29;94897.38;5075566;28;20203;-36
2023/07/31 01:07:02;;;;;;;0.47;0.47;;;24.40;62.60;;;24.74;47.40;94896.06;5075688;28;20264;-36
2023/07/31 01:09:42;;;;;;;0.40;0.40;;;24.40;62.90;;;24.75;47.71;94900.34;5077001;28;20185;-36
2023/07/31 01:12:15;;;;;;;0.50;0.50;;;24.40;62.90;;;24.74;47.11;94898.75;5059579;28;20176;-36
2023/07/31 01:15:13;;;;;;;0.50;0.50;;;24.30;62.80;;;24.71;47.38;94897.41;5075686;28;20197;-36
2023/07/31 01:17:42;;;;;;;0.30;0.30;;;24.30;62.70;;;24.72;47.41;94895.56;5071844;28;20198;-36
2023/07/31 01:20:23;;;;;;;0.35;0.35;;;24.30;62.60;;;24.71;47.15;94894.75;5075627;28;20299;-36
2023/07/31 01:23:36;;;;;;;0.35;0.35;;;24.30;62.50;;;24.70;47.03;94895.03;5076145;28;20607;-36
2023/07/31 01:26:12;;;;;;;0.40;0.40;;;24.30;62.70;;;24.67;47.09;94893.72;5069001;28;20245;-36
2023/07/31 01:29:04;;;;;;;0.40;0.40;;;24.30;62.50;;;24.64;47.00;94896.13;5077019;28;20181;-36
2023/07/31 01:31:33;;;;;;;0.38;0.38;;;24.30;62.50;;;24.64;47.06;94891.56;5075977;28;20205;-36
2023/07/31 01:34:02;;;;;;;0.38;0.38;;;24.30;62.60;;;24.63;46.66;94889.94;5075093;28;20206;-36
2023/07/31 01:36:31;;;;;;;0.45;0.45;;;24.30;62.70;;;24.62;47.20;94883.78;5043373;28;20537;-36
2023/07/31 01:39:00;;;;;;;0.30;0.30;;;24.20;62.60;;;24.62;47.14;94883.78;5076536;28;20231;-36
2023/07/31 01:41:28;;;;;;;0.40;0.40;;;24.20;62.60;;;24.64;47.01;94877.34;5077208;28;20288;-36
2023/07/31 01:43:55;;;;;;;0.40;0.40;;;24.20;62.60;;;24.62;47.37;94869.59;5077483;28;20197;-36
2023/07/31 01:46:23;;;;;;;0.30;0.30;;;24.20;62.60;;;24.60;47.28;94866.38;5076129;28;20251;-36
2023/07/31 01:48:51;;;;;;;0.50;0.50;;;24.20;62.60;;;24.58;47.41;94864.00;5076373;28;20200;-36
2023/07/31 01:51:18;;;;;;;0.30;0.30;;;24.20;62.50;;;24.57;47.06;94859.72;5077418;28;20515;-36
2023/07/31 01:53:45;;;;;;;0.30;0.30;;;24.20;62.60;;;24.56;47.06;94863.47;5077742;28;20195;-37
2023/07/31 01:56:13;;;;;;;0.30;0.30;;;24.20;62.60;;;24.55;47.20;94863.75;5077820;28;20242;-37
2023/07/31 01:58:40;;;;;;;0.30;0.30;;;24.20;62.40;;;24.53;47.01;94857.88;5075347;28;20207;-37
2023/07/31 02:01:07;;;;;;;0.35;0.35;;;24.10;62.50;;;24.53;47.19;94857.88;5075267;28;20196;-36
2023/07/31 02:03:34;;;;;;;0.40;0.40;;;24.10;62.50;;;24.52;47.33;94857.06;5074290;28;20296;-36
2023/07/31 02:06:01;;;;;;;0.30;0.30;;;24.20;62.60;;;24.51;46.92;94858.16;5075801;28;20223;-36
2023/07/31 02:08:28;;;;;;;0.30;0.30;;;24.10;62.50;;;24.49;47.02;94857.63;5057733;28;20570;-36
2023/07/31 02:10:56;;;;;;;0.30;0.30;;;24.10;62.40;;;24.46;46.77;94859.00;5074386;28;20287;-36
2023/07/31 02:13:23;;;;;;;0.52;0.52;;;24.10;62.40;;;24.45;46.97;94859.28;5074805;28;20191;-36
2023/07/31 02:15:51;;;;;;;0.30;0.30;;;24.10;62.40;;;24.44;47.08;94861.16;5074243;28;20545;-36
2023/07/31 02:18:18;;;;;;;0.40;0.40;;;24.10;62.40;;;24.40;46.90;94854.75;5075243;28;20223;-36
2023/07/31 02:20:52;;;;;;;0.40;0.40;;;24.00;62.40;;;24.41;47.12;94863.59;5075378;28;20565;-36
2023/07/31 02:23:20;;;;;;;0.50;0.50;;;24.10;62.50;;;24.40;47.03;94865.50;5074451;28;20204;-36
2023/07/31 02:25:47;;;;;;;0.38;0.38;;;24.00;62.40;;;24.37;47.10;94852.63;5075219;28;20245;-36
2023/07/31 02:28:14;;;;;;;0.30;0.30;;;24.10;62.40;;;24.36;46.91;94855.59;5075276;28;20246;-36
2023/07/31 02:30:46;;;;;;;0.40;0.40;;;24.00;62.30;;;24.36;47.05;94860.97;5075226;28;20206;-36
2023/07/31 02:33:16;;;;;;;0.32;0.32;;;24.00;63.10;;;24.33;46.90;94859.66;5075903;28;20188;-36
2023/07/31 02:35:43;;;;;;;0.40;0.40;;;24.00;62.20;;;24.32;46.97;94862.63;5074184;28;20234;-36
2023/07/31 02:38:10;;;;;;;0.40;0.40;;;24.00;62.40;;;24.30;47.00;94852.16;5074990;28;20230;-36
2023/07/31 02:40:37;;;;;;;0.40;0.40;;;23.90;62.30;;;24.29;46.90;94855.91;5074270;28;20257;-36
2023/07/31 02:43:04;;;;;;;0.40;0.40;;;24.00;62.50;;;24.30;47.16;94863.69;5074076;28;20679;-36
2023/07/31 02:45:31;;;;;;;0.30;0.30;;;23.90;62.40;;;24.29;46.85;94870.13;5077947;28;20247;-36
2023/07/31 02:47:59;;;;;;;0.30;0.30;;;23.90;62.40;;;24.29;47.13;94863.94;5078416;28;20697;-36
2023/07/31 02:50:27;;;;;;;0.40;0.40;;;23.90;62.30;;;24.29;47.01;94867.44;5079340;28;20197;-36
2023/07/31 02:52:54;;;;;;;0.40;0.40;;;23.90;62.60;;;24.28;47.24;94859.69;5079250;28;20227;-36
2023/07/31 02:55:22;;;;;;;0.40;0.40;;;23.90;62.50;;;24.29;47.20;94872.81;5079076;28;20267;-36
2023/07/31 02:57:49;;;;;;;0.30;0.30;;;23.90;62.40;;;24.29;47.14;94866.63;5078896;28;20198;-36
2023/07/31 03:00:16;;;;;;;0.38;0.38;;;23.90;62.40;;;24.28;47.12;94871.19;5079364;28;20591;-36
2023/07/31 03:02:43;;;;;;;0.30;0.30;;;23.90;62.30;;;24.28;46.96;94865.06;5077987;28;20203;-36
2023/07/31 03:05:11;;;;;;;0.40;0.40;;;23.90;62.60;;;24.28;47.14;94862.38;5079414;28;20209;-36
2023/07/31 03:07:38;;;;;;;0.40;0.40;;;23.90;62.60;;;24.27;47.19;94861.56;5079208;28;20218;-36
2023/07/31 03:10:07;;;;;;;0.40;0.40;;;23.90;62.50;;;24.28;47.13;94865.06;5061455;28;20256;-36
2023/07/31 03:12:34;;;;;;;0.38;0.38;;;23.90;62.50;;;24.27;46.60;94858.88;5079140;28;20219;-36
2023/07/31 03:15:01;;;;;;;0.30;0.30;;;23.90;62.40;;;24.26;46.97;94862.63;5078716;28;20680;-36
2023/07/31 03:17:28;;;;;;;0.30;0.30;;;23.90;62.50;;;24.25;47.05;94866.38;5078030;28;20200;-36
2023/07/31 03:19:55;;;;;;;0.40;0.40;;;23.90;62.50;;;24.24;47.04;94859.44;5079372;28;20187;-36
2023/07/31 03:22:22;;;;;;;0.30;0.30;;;23.90;62.50;;;24.24;47.03;94856.78;5078094;28;20199;-36
2023/07/31 03:24:50;;;;;;;0.40;0.40;;;23.90;62.60;;;24.24;47.08;94861.31;5078487;28;20213;-36
2023/07/31 03:27:18;;;;;;;0.40;0.40;;;23.90;62.70;;;24.25;47.35;94862.91;5062139;28;20619;-36
2023/07/31 03:29:45;;;;;;;0.32;0.32;;;23.90;62.80;;;24.24;47.31;94859.44;5061875;28;20208;-36
2023/07/31 03:32:13;;;;;;;0.30;0.30;;;23.90;62.80;;;24.23;47.41;94859.69;5079789;28;20196;-36
2023/07/31 03:34:40;;;;;;;0.40;0.40;;;23.90;62.90;;;24.24;47.47;94859.44;5079666;28;20223;-36
2023/07/31 03:37:09;;;;;;;0.50;0.50;;;23.90;62.70;;;24.25;47.22;94860.22;5078803;28;20643;-36
2023/07/31 03:39:36;;;;;;;0.30;0.30;;;23.90;62.50;;;24.22;47.28;94855.44;5078971;28;20286;-36
2023/07/31 03:42:03;;;;;;;0.30;0.30;;;23.90;62.30;;;24.22;47.22;94855.44;5080827;28;20196;-36
2023/07/31 03:44:30;;;;;;;0.40;0.40;;;23.90;62.30;;;24.21;46.97;94856.53;5079900;28;20279;-37
2023/07/31 03:46:58;;;;;;;0.40;0.40;;;23.90;62.40;;;24.20;47.04;94855.72;5080528;28;20199;-37
2023/07/31 03:49:25;;;;;;;0.30;0.30;;;23.90;62.30;;;24.19;46.85;94858.69;5061909;28;20195;-36
2023/07/31 03:51:52;;;;;;;0.30;0.30;;;23.80;62.30;;;24.18;46.93;94862.44;5077728;28;20195;-36
2023/07/31 03:54:19;;;;;;;0.40;0.40;;;23.80;62.20;;;24.16;46.97;94862.72;5077469;28;20214;-36
2023/07/31 03:56:46;;;;;;;0.40;0.40;;;23.80;63.10;;;24.14;46.88;94860.31;5076624;28;20588;-36
2023/07/31 03:59:13;;;;;;;0.40;0.40;;;23.80;62.20;;;24.14;46.78;94865.69;5076524;28;20207;-36
2023/07/31 04:01:40;;;;;;;0.40;0.40;;;23.80;62.20;;;24.13;46.90;94866.75;5077421;28;20195;-36
2023/07/31 04:04:07;;;;;;;0.30;0.30;;;23.80;62.10;;;24.13;46.75;94871.31;5078197;28;20540;-36
2023/07/31 04:06:35;;;;;;;0.30;0.30;;;23.80;62.00;;;24.10;46.82;94869.19;5076613;28;20296;-36
2023/07/31 04:09:03;;;;;;;0.30;0.30;;;23.70;61.90;;;24.10;46.74;94874.56;5077482;28;20269;-36
2023/07/31 04:11:30;;;;;;;0.40;0.40;;;23.70;62.00;;;24.08;46.64;94874.03;5077221;28;20684;-36
2023/07/31 04:13:57;;;;;;;0.40;0.40;;;23.70;61.90;;;24.06;46.67;94870.81;5077713;28;20272;-36
2023/07/31 04:16:24;;;;;;;0.30;0.30;;;23.70;61.80;;;24.05;46.37;94872.69;5077528;28;20525;-36
2023/07/31 04:18:52;;;;;;;0.40;0.40;;;23.70;61.80;;;24.04;46.44;94875.66;5076361;28;20204;-36
2023/07/31 04:21:19;;;;;;;0.40;0.40;;;23.70;61.80;;;24.03;46.59;94880.22;5077143;28;20197;-36
2023/07/31 04:23:46;;;;;;;0.40;0.40;;;23.70;61.90;;;24.02;46.57;94878.59;5076160;28;20202;-36
2023/07/31 04:26:13;;;;;;;0.35;0.35;;;23.70;62.00;;;23.94;46.64;94873.84;5076967;28;20205;-36
2023/07/31 04:28:41;;;;;;;0.40;0.40;;;23.70;62.00;;;24.02;46.76;94881.28;5077670;28;20254;-36
2023/07/31 04:31:08;;;;;;;0.30;0.30;;;23.60;61.90;;;23.96;46.64;94875.19;5077620;28;20571;-36
2023/07/31 04:33:35;;;;;;;0.40;0.40;;;23.70;62.00;;;24.00;46.51;94879.97;5075787;28;20234;-36
2023/07/31 04:36:03;;;;;;;0.40;0.40;;;23.60;61.90;;;24.00;46.58;94883.47;5076987;28;20619;-36
2023/07/31 04:38:30;;;;;;;0.40;0.40;;;23.60;61.80;;;23.98;46.41;94882.94;5076836;28;20233;-36
2023/07/31 04:40:57;;;;;;;0.40;0.40;;;23.60;61.80;;;24.00;46.47;94888.00;5076780;28;20190;-36
2023/07/31 04:43:24;;;;;;;0.30;0.30;;;23.60;61.80;;;23.98;46.45;94885.59;5075990;28;20603;-36
2023/07/31 04:45:53;;;;;;;0.30;0.30;;;23.60;62.00;;;23.99;46.54;94887.22;5076700;28;20701;-36
2023/07/31 04:48:21;;;;;;;0.30;0.30;;;23.60;61.90;;;23.97;46.58;94884.00;5077197;28;20692;-36
2023/07/31 04:50:48;;;;;;;0.30;0.30;;;23.60;61.90;;;23.97;46.55;94878.63;5077187;28;20271;-36
2023/07/31 04:53:15;;;;;;;0.40;0.40;;;23.60;61.90;;;23.98;46.47;94882.94;5077057;28;20597;-36
2023/07/31 04:55:42;;;;;;;0.30;0.30;;;23.60;62.00;;;23.96;46.54;94888.56;5075661;28;20263;-36
2023/07/31 04:58:09;;;;;;;0.40;0.40;;;23.60;61.80;;;23.95;46.31;94880.81;5075711;28;20242;-36
2023/07/31 05:00:36;;;;;;;0.40;0.40;;;23.60;61.80;;;23.95;46.13;94878.13;5076943;28;20201;-36
2023/07/31 05:03:03;;;;;;;0.35;0.35;;;23.60;61.70;;;23.93;46.24;94880.28;5076078;28;20201;-36
2023/07/31 05:05:31;;;;;;;0.30;0.30;;;23.60;61.80;;;23.88;46.15;94882.97;5076966;28;20212;-36
2023/07/31 05:07:58;;;;;;;0.40;0.40;;;23.60;61.70;;;23.91;46.29;94883.22;5076540;28;20207;-36
2023/07/31 05:10:26;;;;;;;0.40;0.40;;;23.60;61.60;;;23.89;46.22;94885.38;5075876;28;20206;-36
2023/07/31 05:12:53;;;;;;;0.32;0.32;;;23.50;61.60;;;23.89;46.22;94892.59;5077621;28;20278;-36
2023/07/31 05:15:20;;;;;;;0.40;0.40;;;23.50;61.50;;;23.89;46.17;94889.91;5076982;28;20262;-36
2023/07/31 05:17:47;;;;;;;0.40;0.40;;;23.50;61.60;;;23.89;46.31;94895.25;5076335;28;20256;-36
2023/07/31 05:20:15;;;;;;;0.32;0.32;;;23.50;61.70;;;23.88;46.00;94899.81;5077188;28;20282;-36
2023/07/31 05:22:42;;;;;;;0.40;0.40;;;23.50;61.70;;;23.89;46.36;94893.41;5076244;28;20248;-36
2023/07/31 05:25:09;;;;;;;0.40;0.40;;;23.50;61.70;;;23.90;46.36;94896.88;5077053;28;20222;-36
2023/07/31 05:27:36;;;;;;;0.40;0.40;;;23.50;61.70;;;23.90;46.33;94895.00;5077167;28;20230;-36
2023/07/31 05:30:04;;;;;;;0.38;0.38;;;23.50;61.70;;;23.89;46.22;94888.03;5077066;28;20215;-36
2023/07/31 05:32:32;;;;;;;0.40;0.40;;;23.50;61.60;;;23.88;46.48;94888.31;5076307;28;20214;-36
2023/07/31 05:34:59;;;;;;;0.30;0.30;;;23.50;61.80;;;23.90;46.36;94888.84;5077288;28;20194;-36
2023/07/31 05:37:27;;;;;;;0.30;0.30;;;23.50;61.80;;;23.90;46.39;94899.53;5077428;28;20289;-36
2023/07/31 05:39:54;;;;;;;0.35;0.35;;;23.60;61.80;;;23.89;46.05;94887.22;5077724;28;20250;-37
2023/07/31 05:42:21;;;;;;;0.40;0.40;;;23.50;61.50;;;23.88;46.18;94891.78;5076000;28;20284;-37
2023/07/31 05:44:48;;;;;;;0.32;0.32;;;23.50;61.50;;;23.87;46.08;94898.22;5074495;28;20658;-36
2023/07/31 05:47:15;;;;;;;0.32;0.32;;;23.50;61.50;;;23.85;46.26;94896.91;5075191;28;20216;-36
2023/07/31 05:49:42;;;;;;;0.38;0.38;;;23.50;61.50;;;23.84;46.13;94898.78;5057959;28;20193;-36
2023/07/31 05:52:09;;;;;;;0.40;0.40;;;23.50;61.40;;;23.82;45.89;94901.72;5075681;28;20203;-36
2023/07/31 05:54:37;;;;;;;0.40;0.40;;;23.50;61.30;;;23.81;45.96;94905.50;5074278;28;20539;-36
2023/07/31 05:57:04;;;;;;;0.40;0.40;;;23.50;61.40;;;23.81;46.01;94907.38;5075668;28;20235;-36
2023/07/31 05:59:32;;;;;;;0.40;0.40;;;23.50;61.50;;;23.81;46.18;94904.69;5075370;28;20231;-36
2023/07/31 06:02:00;;;;;;;0.40;0.40;;;23.50;61.50;;;23.78;46.56;94900.69;5074973;28;20203;-36
2023/07/31 06:04:27;;;;;;;0.30;0.30;;;23.50;61.50;;;23.83;46.23;94907.91;5074247;28;20192;-36
2023/07/31 06:06:56;;;;;;;0.40;0.40;;;23.50;61.70;;;23.83;46.26;94908.69;5074134;28;20732;-36
2023/07/31 06:09:23;;;;;;;0.40;0.40;;;23.50;62.60;;;23.83;46.23;94905.22;5075469;28;20640;-36
2023/07/31 06:11:50;;;;;;;0.40;0.40;;;23.50;61.60;;;23.82;46.33;94904.41;5075243;28;20521;-36
2023/07/31 06:14:17;;;;;;;0.40;0.40;;;23.50;61.60;;;23.84;46.16;94901.47;5075083;28;20211;-36
2023/07/31 06:16:45;;;;;;;0.35;0.35;;;23.50;61.50;;;23.85;46.31;94908.41;5074684;28;20198;-36
2023/07/31 06:19:12;;;;;;;0.40;0.40;;;23.50;61.50;;;23.85;46.04;94900.38;5075716;28;20187;-36
2023/07/31 06:21:41;;;;;;;0.40;0.40;;;23.50;61.50;;;23.85;45.82;94889.66;5078166;28;20232;-36
2023/07/31 06:24:09;;;;;;;0.40;0.40;;;23.50;61.50;;;23.86;46.20;94895.81;5079369;28;20224;-36
2023/07/31 06:26:36;;;;;;;0.40;0.40;;;23.50;61.50;;;23.87;46.05;94894.75;5061529;28;20285;-36
2023/07/31 06:29:04;;;;;;;0.40;0.40;;;23.50;61.70;;;23.86;46.12;94895.81;5079178;28;20286;-36
2023/07/31 06:31:31;;;;;;;0.40;0.40;;;23.50;61.60;;;23.85;46.21;94895.00;5078919;28;20237;-36
2023/07/31 06:33:58;;;;;;;0.38;0.38;;;23.60;61.50;;;23.86;46.08;94893.16;5078982;28;20191;-36
2023/07/31 06:36:26;;;;;;;0.40;0.40;;;23.60;61.40;;;23.86;46.20;94890.47;5079228;28;20648;-36
2023/07/31 06:38:53;;;;;;;0.38;0.38;;;23.50;61.40;;;23.83;46.08;94895.28;5079569;28;20226;-36
2023/07/31 06:41:20;;;;;;;0.40;0.40;;;23.60;61.30;;;23.82;45.84;94893.69;5078054;28;20274;-36
2023/07/31 06:43:47;;;;;;;0.40;0.40;;;23.50;61.10;;;23.82;45.80;94898.25;5061803;28;20216;-36
2023/07/31 06:46:15;;;;;;;0.40;0.40;;;23.50;61.10;;;23.80;45.82;94893.19;5078115;28;20226;-36
2023/07/31 06:48:42;;;;;;;0.40;0.40;;;23.50;61.00;;;23.80;45.59;94895.03;5077830;28;20219;-36
2023/07/31 06:51:09;;;;;;;0.30;0.30;;;23.50;61.00;;;23.78;45.41;94895.31;5077825;28;20230;-36
2023/07/31 06:53:36;;;;;;;0.40;0.40;;;23.50;60.90;;;23.77;45.17;94884.91;5079185;28;20593;-36
2023/07/31 06:56:04;;;;;;;0.40;0.40;;;23.50;60.90;;;23.76;45.63;94883.28;5077734;28;20205;-36
2023/07/31 06:58:31;;;;;;;0.32;0.32;;;23.50;60.90;;;23.76;45.50;94886.75;5080455;28;20204;-36
2023/07/31 07:00:58;;;;;;;0.50;0.50;;;23.50;60.90;;;23.75;45.41;94889.72;5061848;28;20191;-36
2023/07/31 07:03:25;;;;;;;0.40;0.40;;;23.50;60.80;;;23.74;45.22;94888.94;5078379;28;20660;-36
2023/07/31 07:05:53;;;;;;;0.32;0.32;;;23.50;60.90;;;23.75;45.41;94884.38;5078702;28;20628;-36
2023/07/31 07:08:20;;;;;;;0.30;0.30;;;23.50;60.90;;;23.73;45.47;94887.31;5079632;28;20609;-36
2023/07/31 07:10:47;;;;;;;0.30;0.30;;;23.50;60.90;;;23.74;45.18;94886.25;5078652;28;20215;-36
2023/07/31 07:13:15;;;;;;;0.30;0.30;;;23.50;60.90;;;23.76;45.45;94894.00;5079599;28;20187;-36
2023/07/31 07:15:42;;;;;;;0.32;0.32;;;23.50;60.90;;;23.75;45.34;94884.38;5080313;28;20191;-36
2023/07/31 07:18:10;;;;;;;0.40;0.40;;;23.50;61.00;;;23.75;45.24;94890.50;5078955;28;20203;-36
2023/07/31 07:20:37;;;;;;;0.30;0.30;;;23.50;60.80;;;23.76;45.30;94891.31;5080112;28;20535;-36
2023/07/31 07:23:05;;;;;;;0.40;0.40;;;23.50;60.70;;;23.75;45.32;94895.06;5080069;28;20190;-36
2023/07/31 07:25:32;;;;;;;0.40;0.40;;;23.50;60.90;;;23.75;45.24;94892.41;5079176;28;20195;-36
2023/07/31 07:27:59;;;;;;;0.40;0.40;;;23.50;60.90;;;23.73;45.17;94890.00;5079987;28;20207;-36
2023/07/31 07:30:26;;;;;;;0.40;0.40;;;23.50;60.80;;;23.73;45.17;94887.31;5078999;28;20202;-36
2023/07/31 07:32:54;;;;;;;0.30;0.30;;;23.50;60.80;;;23.75;45.42;94889.72;5079577;28;20312;-37
2023/07/31 07:35:22;;;;;;;0.40;0.40;;;23.50;60.90;;;23.75;45.31;94892.41;5078357;28;20553;-36
2023/07/31 07:37:50;;;;;;;0.30;0.30;;;23.40;60.80;;;23.75;45.35;94892.41;5077537;28;20187;-36
2023/07/31 07:40:20;;;;;;;0.30;0.30;;;23.40;60.80;;;23.75;45.35;94892.41;5077660;28;20244;-36
2023/07/31 07:42:47;;;;;;;0.32;0.32;;;23.50;60.90;;;23.75;45.13;94885.16;5078029;28;20598;-36
2023/07/31 07:45:14;;;;;;;0.40;0.40;;;23.40;60.70;;;23.75;45.28;94879.81;5077275;28;20289;-36
2023/07/31 07:47:42;;;;;;;0.40;0.40;;;23.50;60.70;;;23.75;45.39;94887.84;5076928;28;20589;-36
2023/07/31 07:50:09;;;;;;;0.40;0.40;;;23.50;61.00;;;23.76;45.52;94881.41;5077323;28;20183;-36
2023/07/31 07:52:38;;;;;;;0.40;0.40;;;23.50;61.00;;;23.77;45.51;94879.53;5077964;28;20280;-36
2023/07/31 07:55:06;;;;;;;0.40;0.40;;;23.50;60.90;;;23.78;45.22;94881.16;5076639;28;20306;-36
2023/07/31 07:57:33;;;;;;;0.40;0.40;;;23.50;60.70;;;23.77;45.18;94888.38;5059948;28;20196;-36
2023/07/31 08:00:00;;;;;;;0.40;0.40;;;23.50;60.60;;;23.78;45.27;94889.19;5077929;28;20213;-36
2023/07/31 08:02:28;;;;;;;0.35;0.35;;;23.50;60.80;;;23.78;45.37;94889.97;5059718;28;20204;-36
2023/07/31 08:04:55;;;;;;;0.40;0.40;;;23.50;60.70;;;23.78;44.89;94884.63;5077343;28;20206;-36
2023/07/31 08:07:22;;;;;;;0.30;0.30;;;23.50;60.40;;;23.78;44.74;94881.16;5076033;28;20634;-36
2023/07/31 08:09:49;;;;;;;0.43;0.43;;;23.50;60.30;;;23.78;44.67;94887.28;5077021;28;20191;-36
2023/07/31 08:12:16;;;;;;;0.30;0.30;;;23.50;60.40;;;23.79;44.80;94880.06;5076650;28;20257;-36
2023/07/31 08:14:44;;;;;;;0.30;0.30;;;23.50;60.40;;;23.78;44.64;94884.63;5077131;28;20540;-36
2023/07/31 08:17:11;;;;;;;0.43;0.43;;;23.50;60.30;;;23.78;44.73;94876.59;5076893;28;20593;-36
2023/07/31 08:19:38;;;;;;;0.60;0.60;;;23.50;60.20;;;23.74;44.28;94869.38;5076016;28;20183;-36
2023/07/31 08:22:05;;;;;;;0.40;0.40;;;23.50;60.20;;;23.78;44.44;94884.63;5076674;28;20189;-36
2023/07/31 08:24:33;;;;;;;0.30;0.30;;;23.50;60.10;;;23.74;44.73;94872.88;5076351;28;20195;-36
2023/07/31 08:27:00;;;;;;;0.40;0.40;;;23.50;60.10;;;23.78;44.67;94881.94;5075936;28;20200;-36
2023/07/31 08:29:27;;;;;;;0.30;0.30;;;23.50;60.10;;;23.79;44.58;94883.53;5076795;28;20223;-36
2023/07/31 08:31:54;;;;;;;0.40;0.40;;;23.50;60.20;;;23.80;44.81;94873.63;5076851;28;20278;-36
2023/07/31 08:34:21;;;;;;;0.40;0.40;;;23.50;60.20;;;23.81;44.42;94868.00;5076782;28;20223;-36
2023/07/31 08:36:48;;;;;;;0.40;0.40;;;23.50;60.00;;;23.80;44.07;94873.63;5076319;28;20192;-36
2023/07/31 08:39:15;;;;;;;0.30;0.30;;;23.50;59.70;;;23.79;43.88;94870.16;5076703;28;20260;-36
2023/07/31 08:41:43;;;;;;;0.40;0.40;;;23.50;59.50;;;23.79;43.89;94867.47;5076359;28;20203;-36
2023/07/31 08:44:11;;;;;;;0.40;0.40;;;23.50;59.50;;;23.80;43.88;94873.63;5076319;28;20186;-36
2023/07/31 08:46:39;;;;;;;0.40;0.40;;;23.50;59.60;;;23.81;43.78;94867.19;5076462;28;20191;-36
2023/07/31 08:49:08;;;;;;;0.30;0.30;;;23.50;59.40;;;23.81;43.79;94865.31;5058921;28;20261;-36
2023/07/31 08:51:36;;;;;;;0.30;0.30;;;23.50;59.30;;;23.82;43.58;94868.78;5075305;28;20290;-36
2023/07/31 08:54:04;;;;;;;0.40;0.40;;;23.50;59.20;;;23.85;43.76;94867.44;5058994;28;20195;-36
2023/07/31 08:56:32;;;;;;;0.38;0.38;;;23.60;59.20;;;23.86;43.66;94863.69;5076497;28;20192;-36
2023/07/31 08:59:03;;;;;;;0.40;0.40;;;23.60;59.20;;;23.87;43.64;94865.28;5058707;28;20649;-36
2023/07/31 09:01:37;;;;;;;0.50;0.50;;;23.60;59.10;;;23.88;43.51;94864.22;5075391;28;20263;-36
2023/07/31 09:04:05;;;;;;;0.25;0.25;;;23.60;59.20;;;23.89;43.29;94855.91;5076391;28;20190;-36
2023/07/31 09:06:33;;;;;;;0.40;0.40;;;23.60;59.00;;;23.91;43.42;94863.66;5076416;28;20207;-36
2023/07/31 09:09:00;;;;;;;0.38;0.38;;;23.60;59.20;;;23.93;43.44;94856.19;5076325;28;20212;-36
2023/07/31 09:11:29;;;;;;;0.30;0.30;;;23.60;59.10;;;23.95;43.40;94860.16;5058758;28;20197;-36
2023/07/31 09:13:58;;;;;;;0.50;0.50;;;23.60;59.20;;;23.99;43.53;94863.09;5075692;28;20229;-37
2023/07/31 09:16:32;;;;;;;0.30;0.30;;;23.70;59.10;;;24.01;43.44;94855.59;5075576;28;20188;-37
2023/07/31 09:19:01;;;;;;;0.40;0.40;;;23.70;59.10;;;24.04;43.27;94855.03;5058568;28;20207;-37
2023/07/31 09:21:29;;;;;;;0.50;0.50;;;23.70;59.10;;;24.06;43.34;94847.50;5074500;28;20204;-37
2023/07/31 09:23:56;;;;;;;0.28;0.28;;;23.70;59.10;;;24.09;43.33;94854.19;5075534;28;20273;-37
2023/07/31 09:26:30;;;;;;;0.40;0.40;;;23.70;59.40;;;24.09;43.31;94849.63;5074762;28;20294;-37
2023/07/31 09:29:01;;;;;;;0.40;0.40;;;23.70;58.90;;;24.10;43.46;94843.19;5074579;28;20227;-38
2023/07/31 09:31:40;;;;;;;0.60;0.60;;;23.70;58.90;;;24.12;43.33;94841.03;5058131;28;20259;-38
2023/07/31 09:34:08;;;;;;;0.40;0.40;;;23.80;59.20;;;24.14;43.84;94841.56;5075287;28;20267;-38
2023/07/31 09:36:46;;;;;;;0.60;0.60;;;23.80;59.40;;;24.17;43.47;94840.19;5075271;28;20198;-38
2023/07/31 09:39:16;;;;;;;0.35;0.35;;;23.80;59.50;;;24.20;43.47;94836.16;5075242;28;20658;-38
2023/07/31 09:41:47;;;;;;;0.30;0.30;;;23.80;59.40;;;24.22;43.33;94834.78;5075378;28;20219;-38
2023/07/31 09:44:14;;;;;;;0.38;0.38;;;23.90;59.50;;;24.23;43.11;94833.72;5075177;28;20175;-39
2023/07/31 09:46:42;;;;;;;0.50;0.50;;;23.90;59.10;;;24.26;43.30;94829.69;5074014;28;20187;-37
2023/07/31 09:49:12;;;;;;;0.40;0.40;;;23.90;59.20;;;24.28;43.23;94825.63;5075276;28;20250;-37
2023/07/31 09:51:41;;;;;;;0.38;0.38;;;23.90;59.20;;;24.33;43.18;94824.78;5075079;28;20238;-38
2023/07/31 09:54:13;;;;;;;0.30;0.30;;;23.90;59.20;;;24.34;42.97;94817.53;5074470;28;20685;-39
2023/07/31 09:56:46;;;;;;;0.30;0.30;;;24.00;58.80;;;24.37;43.24;94817.00;5075112;28;20205;-38
2023/07/31 09:59:19;;;;;;;0.40;0.40;;;24.00;58.80;;;24.41;43.00;94809.97;5058122;28;20349;-38
2023/07/31 10:01:51;;;;;;;0.40;0.40;;;24.00;58.80;;;24.43;42.82;94813.97;5074020;28;20261;-38
2023/07/31 10:04:25;;;;;;;0.30;0.30;;;24.00;58.90;;;24.45;42.72;94801.09;5075192;28;20568;-38
2023/07/31 10:06:54;;;;;;;0.30;0.30;;;24.00;59.10;;;24.49;43.25;94806.69;5075303;28;20181;-38
2023/07/31 10:09:23;;;;;;;0.40;0.40;;;24.10;59.00;;;24.53;42.65;94805.03;5074211;28;20271;-38
2023/07/31 10:12:01;;;;;;;0.50;0.50;;;24.10;58.90;;;24.54;42.73;94803.16;5075430;28;20186;-39
2023/07/31 10:14:28;;;;;;;0.30;0.30;;;24.10;58.80;;;24.56;42.63;94799.13;5073646;28;20186;-38
2023/07/31 10:16:58;;;;;;;0.30;0.30;;;24.20;58.50;;;24.60;42.47;94810.88;5073995;28;20275;-38
2023/07/31 10:19:27;;;;;;;0.30;0.30;;;24.20;58.60;;;24.61;42.10;94791.00;5075053;28;20288;-38
2023/07/31 10:21:56;;;;;;;0.77;0.77;;;24.20;58.00;;;24.64;41.96;94797.69;5074789;28;20639;-39
2023/07/31 10:24:25;;;;;;;0.30;0.30;;;24.30;58.00;;;24.68;42.50;94795.28;5075553;28;20206;-38